createdAt,value
2022-11-06T00:00:25.435Z,0.00
2022-11-06T00:05:25.358Z,0.00
2022-11-06T00:10:25.316Z,0.00
2022-11-06T00:15:25.233Z,0.00
2022-11-06T00:20:25.172Z,0.00
2022-11-06T00:25:25.097Z,0.00
2022-11-06T00:30:25.037Z,0.00
2022-11-06T00:35:24.965Z,0.00
2022-11-06T00:40:24.912Z,0.00
2022-11-06T00:45:24.820Z,0.00
2022-11-06T00:50:24.765Z,0.00
2022-11-06T00:55:24.709Z,0.00
2022-11-06T01:00:24.640Z,0.00
2022-11-06T01:05:43.625Z,0.00
2022-11-06T01:10:36.038Z,0.00
2022-11-06T01:15:35.954Z,0.00
2022-11-06T01:20:35.897Z,0.00
2022-11-06T01:25:35.833Z,0.00
2022-11-06T01:30:35.829Z,0.00
2022-11-06T01:35:35.695Z,0.00
2022-11-06T01:40:35.648Z,0.00
2022-11-06T01:45:35.559Z,0.00
2022-11-06T01:50:35.506Z,0.00
2022-11-06T01:55:35.449Z,0.00
2022-11-06T02:00:35.374Z,0.00
2022-11-06T02:05:35.304Z,0.00
2022-11-06T02:10:35.236Z,0.00
2022-11-06T02:15:35.163Z,0.00
2022-11-06T02:20:35.082Z,0.00
2022-11-06T02:25:35.036Z,0.00
2022-11-06T02:30:34.976Z,0.00
2022-11-06T02:35:34.914Z,0.00
2022-11-06T02:40:34.839Z,0.00
2022-11-06T02:45:34.769Z,0.00
2022-11-06T02:50:34.706Z,0.00
2022-11-06T02:55:34.647Z,0.00
2022-11-06T03:00:34.590Z,0.00
2022-11-06T03:05:34.516Z,0.00
2022-11-06T03:10:34.440Z,0.00
2022-11-06T03:15:34.389Z,0.00
2022-11-06T03:20:34.313Z,0.00
2022-11-06T03:25:34.252Z,0.00
2022-11-06T03:30:34.184Z,0.00
2022-11-06T03:35:34.117Z,0.00
2022-11-06T03:40:34.082Z,0.00
2022-11-06T03:45:33.964Z,0.00
2022-11-06T03:50:33.924Z,0.00
2022-11-06T03:55:33.851Z,0.00
2022-11-06T04:00:33.931Z,0.00
2022-11-06T04:05:33.715Z,0.00
2022-11-06T04:10:33.643Z,0.00
2022-11-06T04:15:33.591Z,0.00
2022-11-06T04:20:33.528Z,0.00
2022-11-06T04:25:33.457Z,0.00
2022-11-06T04:30:33.388Z,0.00
2022-11-06T04:35:33.323Z,0.00
2022-11-06T04:40:33.264Z,0.00
2022-11-06T04:45:33.190Z,0.00
2022-11-06T04:50:33.138Z,0.00
2022-11-06T04:55:33.069Z,0.00
2022-11-06T05:00:33.039Z,0.00
2022-11-06T05:05:32.924Z,0.00
2022-11-06T05:10:32.857Z,0.00
2022-11-06T05:15:32.797Z,0.00
2022-11-06T05:20:32.708Z,0.00
2022-11-06T05:25:32.658Z,0.00
2022-11-06T05:30:32.596Z,0.00
2022-11-06T05:35:32.522Z,0.00
2022-11-06T05:40:32.470Z,0.00
2022-11-06T05:45:32.395Z,0.00
2022-11-06T05:50:32.336Z,0.00
2022-11-06T05:55:32.271Z,0.00
2022-11-06T06:00:32.266Z,0.00
2022-11-06T06:05:32.130Z,0.00
2022-11-06T06:10:32.282Z,8.00
2022-11-06T06:15:31.991Z,12.00
2022-11-06T06:20:31.965Z,24.00
2022-11-06T06:25:31.860Z,44.00
2022-11-06T06:30:31.787Z,72.00
2022-11-06T06:35:31.743Z,92.00
2022-11-06T06:40:31.681Z,140.00
2022-11-06T06:45:31.593Z,204.00
2022-11-06T06:50:31.548Z,292.00
2022-11-06T06:55:31.487Z,520.00
2022-11-06T07:00:47.314Z,952.00
2022-11-06T07:05:39.671Z,1120.00
2022-11-06T07:10:39.592Z,1604.00
2022-11-06T07:15:39.534Z,1796.00
2022-11-06T07:20:39.461Z,1956.00
2022-11-06T07:25:39.401Z,3880.00
2022-11-06T07:30:39.333Z,3856.00
2022-11-06T07:35:39.283Z,3880.00
2022-11-06T07:40:39.215Z,3912.00
2022-11-06T07:45:39.150Z,2392.00
2022-11-06T07:50:39.077Z,2064.00
2022-11-06T07:55:42.203Z,2040.00
2022-11-06T08:00:39.092Z,2152.00
2022-11-06T08:05:38.885Z,4932.00
2022-11-06T08:10:38.824Z,6548.00
2022-11-06T08:15:38.732Z,6920.00
2022-11-06T08:20:38.686Z,7296.00
2022-11-06T08:25:38.677Z,7960.00
2022-11-06T08:30:38.549Z,10732.00
2022-11-06T08:35:38.498Z,20352.00
2022-11-06T08:40:38.412Z,29408.00
2022-11-06T08:45:38.361Z,33792.00
2022-11-06T08:50:38.282Z,32320.00
2022-11-06T08:55:38.281Z,30528.00
2022-11-06T09:00:38.192Z,30848.00
2022-11-06T09:05:38.093Z,36512.00
2022-11-06T09:10:38.016Z,35648.00
2022-11-06T09:15:37.968Z,44672.00
2022-11-06T09:20:37.890Z,47616.00
2022-11-06T09:25:37.829Z,42976.00
2022-11-06T09:30:37.734Z,41376.00
2022-11-06T09:35:37.690Z,38016.00
2022-11-06T09:40:37.620Z,44128.00
2022-11-06T09:45:37.615Z,44096.00
2022-11-06T09:50:37.486Z,22784.00
2022-11-06T09:55:37.426Z,30592.00
2022-11-06T10:00:37.361Z,54816.00
2022-11-06T10:05:37.392Z,49472.00
2022-11-06T10:10:37.222Z,34400.00
2022-11-06T10:15:37.184Z,50624.00
2022-11-06T10:20:37.101Z,37408.00
2022-11-06T10:25:37.035Z,30784.00
2022-11-06T10:30:36.972Z,35648.00
2022-11-06T10:35:36.945Z,31424.00
2022-11-06T10:40:36.821Z,9456.00
2022-11-06T10:45:36.787Z,9508.00
2022-11-06T10:50:37.043Z,9024.00
2022-11-06T10:55:36.623Z,5520.00
2022-11-06T11:00:36.605Z,4136.00
2022-11-06T11:05:36.480Z,3460.00
2022-11-06T11:10:36.429Z,3324.00
2022-11-06T11:15:36.364Z,2676.00
2022-11-06T11:20:36.297Z,3664.00
2022-11-06T11:25:36.222Z,5644.00
2022-11-06T11:30:36.150Z,8680.00
2022-11-06T11:35:36.104Z,3884.00
2022-11-06T11:40:36.280Z,4536.00
2022-11-06T11:45:35.954Z,4796.00
2022-11-06T11:50:35.913Z,5444.00
2022-11-06T11:55:35.824Z,4360.00
2022-11-06T12:00:35.752Z,4796.00
2022-11-06T12:05:35.707Z,16704.00
2022-11-06T12:10:35.631Z,10152.00
2022-11-06T12:15:35.565Z,5696.00
2022-11-06T12:20:35.513Z,3352.00
2022-11-06T12:25:35.433Z,3452.00
2022-11-06T12:30:35.368Z,3668.00
2022-11-06T12:35:35.298Z,4168.00
2022-11-06T12:40:35.204Z,4380.00
2022-11-06T12:45:35.193Z,4284.00
2022-11-06T12:50:35.097Z,3352.00
2022-11-06T12:55:35.033Z,2404.00
2022-11-06T13:00:34.970Z,2392.00
2022-11-06T13:05:34.942Z,2336.00
2022-11-06T13:10:34.842Z,2712.00
2022-11-06T13:15:34.772Z,2628.00
2022-11-06T13:20:34.704Z,2456.00
2022-11-06T13:25:39.355Z,2028.00
2022-11-06T13:30:35.574Z,1652.00
2022-11-06T13:35:34.499Z,1532.00
2022-11-06T13:40:34.434Z,1556.00
2022-11-06T13:45:34.368Z,1512.00
2022-11-06T13:50:34.325Z,1344.00
2022-11-06T13:55:34.341Z,1224.00
2022-11-06T14:00:34.175Z,1264.00
2022-11-06T14:05:34.111Z,1116.00
2022-11-06T14:10:34.031Z,936.00
2022-11-06T14:15:33.976Z,728.00
2022-11-06T14:20:33.891Z,564.00
2022-11-06T14:25:33.881Z,520.00
2022-11-06T14:31:05.540Z,476.00
2022-11-06T14:35:34.706Z,376.00
2022-11-06T14:40:33.656Z,384.00
2022-11-06T14:45:33.545Z,444.00
2022-11-06T14:50:33.505Z,472.00
2022-11-06T14:55:33.452Z,456.00
2022-11-06T15:00:33.368Z,352.00
2022-11-06T15:05:34.166Z,268.00
2022-11-06T15:10:33.244Z,208.00
2022-11-06T15:15:33.187Z,164.00
2022-11-06T15:20:33.112Z,156.00
2022-11-06T15:25:33.039Z,108.00
2022-11-06T15:30:32.960Z,72.00
2022-11-06T15:35:32.919Z,56.00
2022-11-06T15:40:32.843Z,36.00
2022-11-06T15:45:32.794Z,24.00
2022-11-06T15:50:32.711Z,16.00
2022-11-06T15:55:32.661Z,8.00
2022-11-06T16:00:32.576Z,8.00
2022-11-06T16:05:32.587Z,4.00
2022-11-06T16:10:32.458Z,4.00
2022-11-06T16:15:32.391Z,4.00
2022-11-06T16:20:32.365Z,0.00
2022-11-06T16:25:32.260Z,0.00
2022-11-06T16:30:32.199Z,0.00
2022-11-06T16:35:32.127Z,0.00
2022-11-06T16:40:32.030Z,0.00
2022-11-06T16:45:31.995Z,0.00
2022-11-06T16:50:31.940Z,0.00
2022-11-06T16:55:31.870Z,0.00
2022-11-06T17:00:31.832Z,0.00
2022-11-06T17:05:31.719Z,0.00
2022-11-06T17:10:31.686Z,0.00
2022-11-06T17:15:31.586Z,0.00
2022-11-06T17:20:31.529Z,0.00
2022-11-06T17:25:31.466Z,0.00
2022-11-06T17:30:31.394Z,0.00
2022-11-06T17:35:31.337Z,0.00
2022-11-06T17:40:31.249Z,0.00
2022-11-06T17:45:31.195Z,0.00
2022-11-06T17:50:32.973Z,0.00
2022-11-06T17:55:31.070Z,0.00
2022-11-06T18:00:31.042Z,0.00
2022-11-06T18:05:30.968Z,0.00
2022-11-06T18:10:31.025Z,0.00
2022-11-06T18:15:30.808Z,0.00
2022-11-06T18:20:30.721Z,0.00
2022-11-06T18:25:30.676Z,0.00
2022-11-06T18:30:30.603Z,0.00
2022-11-06T18:35:30.534Z,0.00
2022-11-06T18:40:30.477Z,0.00
2022-11-06T18:45:30.416Z,0.00
2022-11-06T18:50:30.346Z,0.00
2022-11-06T18:55:30.276Z,0.00
2022-11-06T19:00:30.227Z,0.00
2022-11-06T19:05:30.146Z,0.00
2022-11-06T19:10:30.070Z,0.00
2022-11-06T19:15:30.003Z,0.00
2022-11-06T19:20:30.067Z,0.00
2022-11-06T19:25:29.894Z,0.00
2022-11-06T19:30:29.831Z,0.00
2022-11-06T19:35:29.741Z,0.00
2022-11-06T19:40:29.687Z,0.00
2022-11-06T19:45:29.622Z,0.00
2022-11-06T19:50:58.008Z,0.00
2022-11-06T19:55:30.501Z,0.00
2022-11-06T20:00:29.417Z,0.00
2022-11-06T20:05:29.355Z,0.00
2022-11-06T20:10:29.284Z,0.00
2022-11-06T20:15:29.207Z,0.00
2022-11-06T20:20:34.812Z,0.00
2022-11-06T20:25:30.089Z,0.00
2022-11-06T20:30:28.999Z,0.00
2022-11-06T20:35:28.944Z,0.00
2022-11-06T20:40:33.614Z,0.00
2022-11-06T20:45:29.820Z,0.00
2022-11-06T20:50:28.761Z,0.00
2022-11-06T20:55:28.732Z,0.00
2022-11-06T21:00:28.651Z,0.00
2022-11-06T21:05:29.517Z,0.00
2022-11-06T21:10:28.513Z,0.00
2022-11-06T21:15:28.425Z,0.00
2022-11-06T21:20:28.355Z,0.00
2022-11-06T21:25:29.300Z,0.00
2022-11-06T21:30:28.239Z,0.00
2022-11-06T21:35:28.160Z,0.00
2022-11-06T21:40:28.131Z,0.00
2022-11-06T21:45:28.041Z,0.00
2022-11-06T21:50:30.085Z,0.00
2022-11-06T21:55:27.895Z,0.00
2022-11-06T22:00:28.608Z,0.00
2022-11-06T22:05:27.768Z,0.00
2022-11-06T22:10:27.703Z,0.00
2022-11-06T22:15:27.642Z,0.00
2022-11-06T22:20:27.565Z,0.00
2022-11-06T22:25:27.515Z,0.00
2022-11-06T22:30:27.429Z,0.00
2022-11-06T22:35:27.374Z,0.00
2022-11-06T22:40:27.302Z,0.00
2022-11-06T22:45:27.239Z,0.00
2022-11-06T22:50:27.165Z,0.00
2022-11-06T22:55:27.115Z,0.00
2022-11-06T23:00:27.042Z,0.00
2022-11-06T23:05:26.982Z,0.00
2022-11-06T23:10:26.909Z,0.00
2022-11-06T23:15:27.030Z,0.00
2022-11-06T23:20:26.790Z,0.00
2022-11-06T23:25:26.713Z,0.00
2022-11-06T23:30:26.621Z,0.00
2022-11-06T23:35:32.239Z,0.00
2022-11-06T23:40:27.522Z,0.00
2022-11-06T23:45:26.439Z,0.00
2022-11-06T23:50:26.375Z,0.00
2022-11-06T23:55:26.313Z,0.00
